Leeds, New York
Current Conditions -  °F | °C
As of 6:25 AM on Thursday 23 Oct 2014 (Local Time) from KPSF Reporting Station
Moderate Rain Moderate Rain  
Wind Chill: 44°   Ceiling: 1900
Heat Index: 46°   Visibility: 6mi
Dew Point: 44°   Wind: 5mph
Humidity: 93%   Direction: NA
Pressure: 29.76"   Gusts: NA
Location:  42.26°N, 73.9°W
Report Text: KPSF 231025Z AUTO VRB04KT 6SM RA BR FEW010 BKN019 OVC050 08/07 A2976 RMK AO2 P0012 T00780067
Loading
Personal Weather Stations






























Interactive Weather Map
Tropical Storm Tracking
New forecast layout! Learn more

10-Day Weather Forecast

Advertisements
Track Severe Weather on mobile